createdAt,value
2017-09-25T00:02:09.243Z,64.80
2017-09-25T00:04:37.842Z,64.50
2017-09-25T00:07:06.483Z,64.50
2017-09-25T00:09:34.336Z,64.40
2017-09-25T00:12:02.192Z,64.30
2017-09-25T00:14:29.968Z,64.30
2017-09-25T00:16:57.838Z,64.20
2017-09-25T00:19:25.648Z,64.40
2017-09-25T00:21:54.363Z,64.10
2017-09-25T00:24:22.156Z,64.10
2017-09-25T00:26:50.068Z,64.10
2017-09-25T00:29:18.797Z,64.30
2017-09-25T00:31:46.667Z,64.20
2017-09-25T00:34:14.740Z,64.10
2017-09-25T00:36:42.547Z,64.20
2017-09-25T00:39:11.135Z,64.60
2017-09-25T00:41:39.687Z,64.30
2017-09-25T00:44:07.568Z,64.30
2017-09-25T00:46:35.429Z,64.00
2017-09-25T00:49:03.394Z,63.80
2017-09-25T00:51:32.067Z,62.30
2017-09-25T00:54:00.111Z,62.30
2017-09-25T00:56:27.982Z,62.00
2017-09-25T00:58:55.942Z,61.70
2017-09-25T01:04:40.627Z,60.80
2017-09-25T01:07:08.548Z,60.50
2017-09-25T01:09:37.162Z,60.70
2017-09-25T01:12:05.090Z,60.60
2017-09-25T01:14:33.060Z,60.60
2017-09-25T01:17:01.673Z,60.70
2017-09-25T01:19:29.603Z,60.60
2017-09-25T01:21:57.465Z,61.00
2017-09-25T01:24:25.372Z,61.20
2017-09-25T01:26:54.102Z,61.30
2017-09-25T01:29:22.035Z,61.40
2017-09-25T01:31:50.007Z,61.90
2017-09-25T01:34:17.925Z,62.10
2017-09-25T01:36:45.888Z,62.30
2017-09-25T01:39:13.883Z,62.30
2017-09-25T01:41:42.608Z,62.50
2017-09-25T01:44:10.482Z,62.50
2017-09-25T01:46:38.360Z,62.70
2017-09-25T01:49:06.259Z,62.80
2017-09-25T01:51:34.172Z,62.90
2017-09-25T01:54:02.012Z,63.10
2017-09-25T01:56:30.715Z,62.60
2017-09-25T01:58:58.702Z,62.60
2017-09-25T02:01:26.587Z,62.60
2017-09-25T02:03:54.447Z,60.10
2017-09-25T02:06:22.368Z,61.40
2017-09-25T02:08:50.240Z,61.90
2017-09-25T02:11:18.095Z,61.70
2017-09-25T02:13:46.701Z,61.50
2017-09-25T02:16:14.588Z,61.50
2017-09-25T02:18:42.423Z,61.00
2017-09-25T02:21:11.095Z,60.50
2017-09-25T02:23:39.721Z,60.00
2017-09-25T02:26:07.546Z,60.00
2017-09-25T02:28:36.216Z,59.70
2017-09-25T02:31:04.914Z,59.40
2017-09-25T02:33:33.672Z,59.50
2017-09-25T02:36:01.683Z,59.50
2017-09-25T02:38:30.368Z,59.50
2017-09-25T02:40:59.120Z,59.00
2017-09-25T02:43:26.995Z,59.00
2017-09-25T02:45:55.679Z,59.00
2017-09-25T02:48:23.524Z,59.00
2017-09-25T02:50:51.410Z,58.40
2017-09-25T02:53:19.331Z,58.70
2017-09-25T02:55:47.180Z,58.60
2017-09-25T02:58:15.026Z,58.40
2017-09-25T03:00:43.688Z,58.20
2017-09-25T03:03:11.530Z,58.20
2017-09-25T03:05:39.348Z,58.30
2017-09-25T03:08:07.954Z,58.60
2017-09-25T03:10:35.824Z,58.70
2017-09-25T03:13:03.711Z,58.50
2017-09-25T03:15:31.561Z,58.60
2017-09-25T03:17:59.363Z,58.40
2017-09-25T03:20:27.188Z,58.50
2017-09-25T03:22:55.112Z,58.30
2017-09-25T03:25:22.983Z,58.40
2017-09-25T03:27:50.825Z,58.10
2017-09-25T03:30:18.694Z,58.50
2017-09-25T03:32:46.595Z,58.40
2017-09-25T03:35:15.228Z,58.60
2017-09-25T03:37:43.062Z,58.60
2017-09-25T03:40:10.933Z,58.80
2017-09-25T03:42:38.847Z,58.90
2017-09-25T03:45:06.737Z,59.30
2017-09-25T03:47:35.393Z,59.50
2017-09-25T03:50:03.256Z,59.50
2017-09-25T03:52:31.156Z,59.60
2017-09-25T03:54:58.969Z,59.70
2017-09-25T03:57:26.864Z,59.80
2017-09-25T03:59:54.771Z,59.80
2017-09-25T04:02:23.365Z,59.70
2017-09-25T04:04:51.239Z,59.70
2017-09-25T04:07:19.063Z,59.80
2017-09-25T04:09:47.012Z,59.70
2017-09-25T04:12:14.889Z,59.90
2017-09-25T04:14:42.753Z,59.90
2017-09-25T04:17:10.605Z,59.90
2017-09-25T04:19:38.429Z,59.70
2017-09-25T04:22:06.271Z,59.80
2017-09-25T04:24:34.979Z,59.90
2017-09-25T04:27:02.803Z,59.90
2017-09-25T04:29:30.691Z,60.10
2017-09-25T04:31:59.305Z,60.50
2017-09-25T04:34:27.140Z,60.30
2017-09-25T04:36:55.765Z,60.70
2017-09-25T04:39:23.676Z,60.70
2017-09-25T04:41:51.481Z,60.10
2017-09-25T04:44:19.317Z,59.10
2017-09-25T04:46:47.129Z,57.90
2017-09-25T04:49:15.007Z,57.80
2017-09-25T04:51:43.655Z,57.30
2017-09-25T04:54:12.259Z,57.00
2017-09-25T04:56:40.097Z,57.10
2017-09-25T04:59:08.677Z,56.50
2017-09-25T05:01:37.297Z,56.50
2017-09-25T05:04:05.160Z,56.40
2017-09-25T05:06:33.174Z,56.00
2017-09-25T05:09:01.076Z,56.10
2017-09-25T05:11:28.896Z,55.90
2017-09-25T05:13:56.818Z,56.10
2017-09-25T05:16:24.682Z,56.20
2017-09-25T05:18:52.549Z,56.30
2017-09-25T05:21:20.404Z,56.40
2017-09-25T05:23:49.036Z,57.00
2017-09-25T05:26:16.883Z,57.00
2017-09-25T05:28:44.854Z,56.70
2017-09-25T05:31:12.749Z,56.60
2017-09-25T05:33:40.637Z,56.10
2017-09-25T05:36:09.339Z,54.90
2017-09-25T05:38:37.984Z,54.90
2017-09-25T05:41:05.806Z,54.90
2017-09-25T05:43:33.638Z,54.90
2017-09-25T05:46:02.326Z,55.70
2017-09-25T05:48:30.955Z,55.70
2017-09-25T05:50:58.853Z,55.60
2017-09-25T05:53:26.697Z,55.00
2017-09-25T05:55:54.548Z,54.90
2017-09-25T05:58:22.441Z,55.40
2017-09-25T06:00:50.325Z,55.60
2017-09-25T06:03:18.164Z,56.10
2017-09-25T06:05:46.135Z,56.60
2017-09-25T06:08:13.976Z,57.20
2017-09-25T06:10:41.807Z,57.50
2017-09-25T06:13:10.487Z,58.20
2017-09-25T06:15:39.234Z,58.50
2017-09-25T06:18:07.122Z,58.50
2017-09-25T06:20:34.964Z,58.80
2017-09-25T06:23:02.872Z,59.30
2017-09-25T06:25:30.768Z,59.50
2017-09-25T06:27:58.635Z,59.50
2017-09-25T06:30:26.525Z,59.50
2017-09-25T06:32:54.358Z,59.60
2017-09-25T06:35:23.000Z,60.10
2017-09-25T06:37:50.938Z,60.00
2017-09-25T06:40:18.794Z,60.30
2017-09-25T06:42:46.705Z,60.40
2017-09-25T06:45:14.573Z,60.40
2017-09-25T06:47:42.435Z,60.70
2017-09-25T06:50:10.291Z,60.90
2017-09-25T06:52:38.227Z,61.00
2017-09-25T06:55:06.158Z,61.10
2017-09-25T06:57:34.043Z,61.30
2017-09-25T07:00:02.694Z,61.20
2017-09-25T07:02:30.524Z,61.30
2017-09-25T07:04:58.376Z,61.10
2017-09-25T07:07:26.221Z,60.90
2017-09-25T07:09:54.160Z,61.00
2017-09-25T07:12:22.084Z,61.00
2017-09-25T07:14:49.953Z,61.20
2017-09-25T07:17:17.845Z,61.10
2017-09-25T07:19:45.670Z,61.20
2017-09-25T07:22:13.528Z,60.70
2017-09-25T07:24:42.136Z,61.20
2017-09-25T07:27:09.958Z,61.20
2017-09-25T07:29:37.807Z,61.30
2017-09-25T07:32:05.646Z,61.30
2017-09-25T07:34:33.570Z,61.50
2017-09-25T07:37:01.517Z,61.00
2017-09-25T07:39:29.455Z,61.20
2017-09-25T07:41:57.326Z,61.30
2017-09-25T07:44:25.153Z,60.80
2017-09-25T07:46:53.773Z,61.10
2017-09-25T07:49:21.628Z,61.00
2017-09-25T07:51:49.470Z,60.80
2017-09-25T07:54:17.327Z,60.90
2017-09-25T07:56:45.932Z,60.90
2017-09-25T07:59:13.789Z,60.90
2017-09-25T08:01:41.724Z,60.80
2017-09-25T08:04:10.344Z,61.30
2017-09-25T08:06:38.318Z,61.30
2017-09-25T08:09:06.161Z,61.50
2017-09-25T08:11:34.836Z,60.50
2017-09-25T08:14:03.443Z,60.20
2017-09-25T08:16:31.288Z,60.20
2017-09-25T08:18:59.915Z,60.80
2017-09-25T08:21:27.774Z,60.80
2017-09-25T08:23:55.677Z,61.40
2017-09-25T08:26:23.626Z,60.60
2017-09-25T08:28:51.498Z,60.40
2017-09-25T08:31:19.348Z,60.80
2017-09-25T08:33:47.252Z,60.10
2017-09-25T08:36:15.149Z,59.90
2017-09-25T08:38:43.087Z,59.70
2017-09-25T08:41:10.992Z,59.30
2017-09-25T08:43:39.577Z,57.90
2017-09-25T08:46:07.457Z,58.00
2017-09-25T08:48:35.305Z,58.00
2017-09-25T08:51:03.229Z,57.70
2017-09-25T08:53:31.052Z,57.70
2017-09-25T08:55:58.863Z,58.40
2017-09-25T08:58:28.375Z,58.50
2017-09-25T09:00:57.015Z,56.90
2017-09-25T09:03:24.907Z,56.90
2017-09-25T09:05:52.749Z,58.40
2017-09-25T09:08:32.352Z,59.80
2017-09-25T09:11:00.957Z,60.80
2017-09-25T09:13:28.784Z,60.80
2017-09-25T09:15:56.741Z,60.80
2017-09-25T09:18:24.595Z,60.40
2017-09-25T09:20:52.432Z,60.70
2017-09-25T09:23:20.260Z,60.60
2017-09-25T09:25:48.179Z,60.80
2017-09-25T09:28:16.077Z,61.70
2017-09-25T09:30:43.913Z,60.50
2017-09-25T09:33:11.738Z,60.70
2017-09-25T09:35:40.340Z,61.30
2017-09-25T09:38:08.253Z,60.50
2017-09-25T09:40:36.246Z,60.70
2017-09-25T09:43:05.121Z,60.50
2017-09-25T09:45:33.785Z,60.50
2017-09-25T09:48:01.617Z,60.50
2017-09-25T09:50:29.496Z,60.60
2017-09-25T09:52:57.429Z,61.00
2017-09-25T09:55:25.479Z,61.50
2017-09-25T09:57:53.363Z,61.70
2017-09-25T10:00:22.102Z,61.40
2017-09-25T10:02:50.060Z,61.40
2017-09-25T10:05:18.695Z,61.90
2017-09-25T10:07:46.589Z,61.80
2017-09-25T10:10:15.431Z,62.60
2017-09-25T10:12:43.468Z,62.60
2017-09-25T10:15:12.142Z,63.20
2017-09-25T10:17:40.026Z,63.20
2017-09-25T10:20:07.869Z,63.30
2017-09-25T10:22:36.517Z,63.90
2017-09-25T10:25:04.379Z,63.90
2017-09-25T10:27:32.368Z,64.50
2017-09-25T10:30:01.027Z,64.80
2017-09-25T10:32:28.860Z,64.80
2017-09-25T10:34:56.993Z,64.90
2017-09-25T10:37:25.089Z,64.70
2017-09-25T10:39:52.998Z,64.50
2017-09-25T10:42:20.925Z,64.30
2017-09-25T10:44:48.944Z,64.90
2017-09-25T10:47:16.803Z,64.30
2017-09-25T10:49:44.635Z,64.20
2017-09-25T10:52:12.535Z,64.40
2017-09-25T10:54:40.355Z,64.60
2017-09-25T10:57:08.300Z,64.50
2017-09-25T10:59:36.224Z,64.60
2017-09-25T11:02:04.132Z,64.80
2017-09-25T11:04:32.086Z,64.90
2017-09-25T11:07:00.750Z,64.90
2017-09-25T11:09:28.656Z,64.90
2017-09-25T11:11:57.252Z,65.00
2017-09-25T11:14:25.921Z,64.90
2017-09-25T11:16:54.583Z,64.90
2017-09-25T11:19:22.495Z,64.80
2017-09-25T11:21:51.092Z,64.90
2017-09-25T11:24:18.976Z,64.80
2017-09-25T11:26:46.910Z,64.60
2017-09-25T11:29:15.578Z,64.40
2017-09-25T11:31:44.245Z,64.80
2017-09-25T11:34:12.142Z,64.80
2017-09-25T11:36:40.793Z,64.90
2017-09-25T11:39:08.641Z,64.90
2017-09-25T11:41:36.563Z,65.20
2017-09-25T11:44:05.288Z,64.30
2017-09-25T11:46:33.252Z,64.30
2017-09-25T11:49:01.182Z,64.40
2017-09-25T11:51:29.835Z,64.80
2017-09-25T11:53:57.706Z,64.80
2017-09-25T11:56:25.542Z,64.80
2017-09-25T11:58:53.367Z,65.70
2017-09-25T12:01:22.023Z,65.00
2017-09-25T12:03:49.925Z,65.00
2017-09-25T12:06:17.769Z,64.80
2017-09-25T12:08:45.625Z,64.90
2017-09-25T12:11:13.488Z,65.30
2017-09-25T12:13:41.369Z,65.00
2017-09-25T12:16:09.220Z,64.80
2017-09-25T12:18:37.067Z,65.30
2017-09-25T12:21:04.949Z,65.20
2017-09-25T12:23:32.939Z,65.50
2017-09-25T12:26:01.573Z,65.60
2017-09-25T12:28:29.499Z,65.60
2017-09-25T12:30:57.352Z,65.60
2017-09-25T12:33:25.209Z,65.60
2017-09-25T12:35:53.095Z,65.30
2017-09-25T12:38:21.724Z,65.50
2017-09-25T12:40:50.315Z,65.60
2017-09-25T12:43:18.300Z,65.60
2017-09-25T12:45:46.227Z,65.60
2017-09-25T12:48:14.128Z,65.80
2017-09-25T12:50:42.017Z,65.50
2017-09-25T12:53:09.870Z,65.20
2017-09-25T12:55:37.743Z,65.00
2017-09-25T12:58:05.687Z,65.30
2017-09-25T13:00:33.556Z,65.10
2017-09-25T13:03:01.364Z,65.50
2017-09-25T13:05:30.017Z,65.60
2017-09-25T13:07:57.872Z,65.60
2017-09-25T13:10:25.700Z,65.20
2017-09-25T13:12:53.607Z,65.20
2017-09-25T13:15:21.451Z,65.00
2017-09-25T13:17:49.293Z,65.30
2017-09-25T13:20:17.910Z,65.70
2017-09-25T13:22:45.728Z,65.70
2017-09-25T13:25:14.340Z,65.50
2017-09-25T13:27:42.248Z,65.50
2017-09-25T13:30:10.118Z,65.60
2017-09-25T13:32:37.932Z,65.90
2017-09-25T13:35:05.748Z,66.10
2017-09-25T13:37:33.588Z,65.70
2017-09-25T13:40:02.147Z,65.80
2017-09-25T13:42:30.292Z,65.70
2017-09-25T13:44:58.997Z,65.20
2017-09-25T13:47:26.847Z,65.30
2017-09-25T13:49:56.851Z,65.00
2017-09-25T13:52:25.492Z,64.70
2017-09-25T13:54:53.332Z,64.70
2017-09-25T13:57:21.220Z,64.20
2017-09-25T14:02:26.692Z,63.90
2017-09-25T14:04:54.561Z,63.90
2017-09-25T14:07:22.484Z,63.60
2017-09-25T14:09:51.191Z,64.70
2017-09-25T14:12:19.122Z,64.70
2017-09-25T14:14:47.047Z,64.70
2017-09-25T14:17:15.011Z,64.90
2017-09-25T14:19:42.909Z,64.90
2017-09-25T14:22:10.854Z,64.70
2017-09-25T14:24:38.712Z,64.60
2017-09-25T14:27:06.535Z,64.50
2017-09-25T14:29:35.151Z,64.40
2017-09-25T14:32:03.054Z,64.40
2017-09-25T14:34:30.897Z,64.70
2017-09-25T14:36:58.843Z,64.40
2017-09-25T14:39:26.695Z,64.80
2017-09-25T14:41:55.317Z,64.80
2017-09-25T14:44:23.146Z,64.70
2017-09-25T14:46:51.902Z,65.00
2017-09-25T14:49:19.800Z,65.00
2017-09-25T14:51:47.733Z,64.40
2017-09-25T14:54:15.606Z,64.50
2017-09-25T14:56:43.499Z,65.00
2017-09-25T14:59:12.122Z,65.10
2017-09-25T15:01:40.035Z,65.10
2017-09-25T15:04:08.660Z,65.50
2017-09-25T15:06:36.491Z,64.90
2017-09-25T15:09:05.290Z,65.10
2017-09-25T15:11:33.954Z,65.00
2017-09-25T15:14:01.781Z,64.90
2017-09-25T15:16:29.653Z,64.90
2017-09-25T15:18:57.497Z,65.10
2017-09-25T15:21:25.498Z,65.00
2017-09-25T15:23:53.386Z,64.90
2017-09-25T15:26:21.314Z,64.80
2017-09-25T15:28:49.239Z,64.70
2017-09-25T15:31:17.897Z,65.00
2017-09-25T15:33:45.738Z,64.90
2017-09-25T15:36:13.716Z,64.60
2017-09-25T15:38:41.691Z,64.50
2017-09-25T15:41:09.544Z,64.30
2017-09-25T15:43:37.426Z,64.70
2017-09-25T15:46:05.387Z,63.90
2017-09-25T15:48:33.233Z,64.50
2017-09-25T15:51:01.125Z,63.90
2017-09-25T15:53:29.249Z,64.10
2017-09-25T15:55:57.107Z,64.20
2017-09-25T15:58:25.910Z,64.00
2017-09-25T16:00:53.773Z,64.10
2017-09-25T16:03:21.700Z,64.10
2017-09-25T16:05:50.172Z,64.10
2017-09-25T16:08:18.054Z,64.20
2017-09-25T16:10:45.960Z,64.30
2017-09-25T16:13:15.519Z,64.60
2017-09-25T16:15:43.492Z,64.30
2017-09-25T16:18:11.381Z,64.60
2017-09-25T16:20:40.042Z,64.80
2017-09-25T16:23:08.819Z,64.60
2017-09-25T16:25:36.735Z,64.40
2017-09-25T16:28:04.601Z,64.50
2017-09-25T16:30:32.600Z,64.60
2017-09-25T16:33:00.420Z,64.60
2017-09-25T16:35:28.980Z,64.50
2017-09-25T16:37:56.783Z,64.50
2017-09-25T16:40:24.596Z,64.40
2017-09-25T16:42:52.420Z,63.80
2017-09-25T16:45:20.233Z,63.70
2017-09-25T16:47:48.012Z,63.90
2017-09-25T16:50:15.800Z,63.80
2017-09-25T16:52:44.408Z,63.90
2017-09-25T16:55:12.280Z,63.80
2017-09-25T16:57:40.116Z,64.00
2017-09-25T17:00:09.053Z,64.10
2017-09-25T17:02:36.869Z,64.10
2017-09-25T17:05:05.441Z,63.80
2017-09-25T17:07:34.054Z,63.90
2017-09-25T17:10:01.953Z,63.70
2017-09-25T17:12:30.989Z,64.00
2017-09-25T17:15:00.502Z,64.30
2017-09-25T17:17:30.470Z,64.50
2017-09-25T17:20:00.443Z,64.50
2017-09-25T17:22:30.479Z,64.60
2017-09-25T17:24:59.473Z,64.50
2017-09-25T17:27:28.221Z,65.00
2017-09-25T17:29:56.859Z,65.10
2017-09-25T17:32:24.704Z,65.10
2017-09-25T17:34:52.523Z,65.20
2017-09-25T17:37:20.344Z,65.10
2017-09-25T17:39:48.172Z,66.00
2017-09-25T17:42:16.753Z,65.70
2017-09-25T17:44:45.423Z,65.60
2017-09-25T17:47:13.209Z,65.50
2017-09-25T17:49:41.778Z,65.80
2017-09-25T17:52:09.581Z,65.70
2017-09-25T17:54:37.502Z,65.80
2017-09-25T17:57:05.355Z,65.70
2017-09-25T17:59:33.151Z,65.80
2017-09-25T18:02:01.735Z,66.00
2017-09-25T18:04:30.355Z,66.20
2017-09-25T18:06:58.185Z,66.20
2017-09-25T18:09:26.740Z,66.60
2017-09-25T18:11:54.601Z,66.60
2017-09-25T18:14:22.431Z,66.80
2017-09-25T18:16:50.267Z,67.00
2017-09-25T18:19:18.863Z,67.30
2017-09-25T18:21:46.770Z,67.40
2017-09-25T18:24:15.324Z,67.80
2017-09-25T18:26:43.203Z,67.80
2017-09-25T18:29:11.031Z,67.80
2017-09-25T18:31:38.862Z,67.80
2017-09-25T18:34:06.659Z,67.90
2017-09-25T18:36:35.231Z,68.20
2017-09-25T18:39:03.228Z,68.20
2017-09-25T18:41:32.106Z,68.20
2017-09-25T18:44:00.673Z,68.20
2017-09-25T18:46:28.553Z,68.20
2017-09-25T18:48:57.140Z,68.30
2017-09-25T18:51:25.757Z,69.20
2017-09-25T18:53:53.624Z,68.50
2017-09-25T18:56:21.420Z,68.50
2017-09-25T18:58:49.229Z,68.50
2017-09-25T19:01:17.801Z,68.70
2017-09-25T19:03:46.381Z,69.00
2017-09-25T19:06:15.011Z,69.10
2017-09-25T19:08:42.883Z,69.10
2017-09-25T19:11:10.739Z,68.90
2017-09-25T19:13:38.585Z,69.10
2017-09-25T19:16:07.151Z,69.50
2017-09-25T19:18:35.721Z,69.50
2017-09-25T19:21:04.321Z,70.00
2017-09-25T19:23:32.992Z,69.40
2017-09-25T19:26:01.553Z,69.50
2017-09-25T19:28:29.359Z,69.50
2017-09-25T19:30:58.020Z,69.50
2017-09-25T19:33:25.829Z,69.40
2017-09-25T19:35:53.665Z,69.80
2017-09-25T19:38:22.270Z,69.20
2017-09-25T19:40:50.183Z,69.20
2017-09-25T19:43:17.990Z,69.20
2017-09-25T19:45:46.676Z,69.30
2017-09-25T19:51:22.827Z,69.30
2017-09-25T19:54:05.522Z,69.40
2017-09-25T19:56:48.260Z,69.40
2017-09-25T19:59:16.940Z,69.20
2017-09-25T20:01:44.814Z,69.20
2017-09-25T20:04:12.845Z,69.00
2017-09-25T20:06:40.740Z,68.70
2017-09-25T20:09:08.636Z,68.90
2017-09-25T20:11:52.108Z,68.90
2017-09-25T20:14:20.499Z,68.90
2017-09-25T20:16:48.925Z,68.90
2017-09-25T20:19:17.529Z,68.90
2017-09-25T20:21:46.264Z,68.80
2017-09-25T20:24:14.218Z,68.60
2017-09-25T20:26:42.032Z,68.70
2017-09-25T20:29:10.683Z,68.70
2017-09-25T20:31:38.707Z,68.70
2017-09-25T20:34:07.364Z,68.60
2017-09-25T20:36:36.102Z,68.50
2017-09-25T20:39:04.138Z,68.50
2017-09-25T20:41:34.923Z,68.60
2017-09-25T20:44:02.790Z,68.50
2017-09-25T20:46:30.603Z,68.60
2017-09-25T20:48:58.404Z,68.50
2017-09-25T20:51:26.241Z,68.60
2017-09-25T20:53:57.605Z,68.50
2017-09-25T20:56:27.084Z,68.60
2017-09-25T20:58:54.903Z,68.60
2017-09-25T21:01:22.744Z,68.40
2017-09-25T21:03:50.560Z,68.50
2017-09-25T21:06:19.159Z,68.40
2017-09-25T21:08:47.055Z,68.40
2017-09-25T21:11:14.880Z,68.50
2017-09-25T21:13:43.445Z,68.30
2017-09-25T21:16:11.298Z,68.30
2017-09-25T21:18:39.145Z,68.30
2017-09-25T21:21:06.984Z,68.20
2017-09-25T21:23:34.881Z,68.20
2017-09-25T21:26:18.448Z,68.30
2017-09-25T21:28:46.293Z,68.40
2017-09-25T21:31:14.178Z,68.00
2017-09-25T21:33:42.008Z,68.50
2017-09-25T21:36:09.820Z,68.90
2017-09-25T21:38:38.441Z,69.60
2017-09-25T21:41:06.299Z,69.60
2017-09-25T21:43:34.104Z,69.70
2017-09-25T21:46:01.917Z,69.70
2017-09-25T21:48:30.562Z,69.90
2017-09-25T21:50:58.382Z,69.90
2017-09-25T21:53:26.260Z,69.90
2017-09-25T21:55:54.067Z,69.80
2017-09-25T21:58:21.888Z,69.80
2017-09-25T22:00:49.723Z,69.60
2017-09-25T22:03:18.280Z,69.70
2017-09-25T22:05:46.121Z,69.70
2017-09-25T22:08:13.952Z,69.50
2017-09-25T22:10:41.773Z,69.50
2017-09-25T22:13:09.595Z,69.60
2017-09-25T22:15:37.418Z,69.70
2017-09-25T22:18:05.984Z,69.60
2017-09-25T22:20:33.819Z,69.60
2017-09-25T22:23:01.676Z,69.50
2017-09-25T22:25:29.513Z,69.70
2017-09-25T22:27:58.107Z,69.70
2017-09-25T22:30:25.926Z,69.70
2017-09-25T22:32:53.780Z,69.40
2017-09-25T22:35:21.660Z,69.80
2017-09-25T22:37:49.539Z,69.40
2017-09-25T22:40:17.435Z,70.00
2017-09-25T22:42:46.102Z,69.70
2017-09-25T22:45:14.743Z,69.60
2017-09-25T22:47:42.549Z,69.60
2017-09-25T22:50:10.523Z,69.50
2017-09-25T22:52:39.162Z,69.40
2017-09-25T22:55:07.031Z,69.30
2017-09-25T22:57:34.920Z,69.50
2017-09-25T23:00:02.871Z,69.60
2017-09-25T23:02:30.756Z,69.60
2017-09-25T23:04:59.326Z,69.70
2017-09-25T23:07:27.208Z,69.30
2017-09-25T23:09:55.111Z,69.30
2017-09-25T23:12:23.000Z,69.60
2017-09-25T23:14:50.847Z,69.20
2017-09-25T23:17:18.657Z,69.20
2017-09-25T23:19:46.485Z,69.10
2017-09-25T23:22:14.313Z,69.00
2017-09-25T23:24:42.136Z,69.00
2017-09-25T23:27:10.093Z,69.40
2017-09-25T23:29:47.902Z,69.90
2017-09-25T23:32:15.759Z,69.90
2017-09-25T23:34:43.580Z,70.10
2017-09-25T23:37:12.183Z,70.00
2017-09-25T23:39:40.804Z,69.80
2017-09-25T23:42:08.644Z,69.80
2017-09-25T23:44:36.500Z,69.90
2017-09-25T23:47:05.092Z,70.00
2017-09-25T23:49:32.910Z,70.00
2017-09-25T23:52:01.638Z,69.60
2017-09-25T23:54:29.466Z,69.60
2017-09-25T23:56:57.278Z,69.90
2017-09-25T23:59:25.182Z,69.90
